createdAt,value
2023-01-06T00:01:16.466Z,11.03
2023-01-06T00:03:43.908Z,11.12
2023-01-06T00:06:12.797Z,11.09
2023-01-06T00:08:40.726Z,11.01
2023-01-06T00:11:12.588Z,10.97
2023-01-06T00:13:40.516Z,11.07
2023-01-06T00:16:12.905Z,11.07
2023-01-06T00:18:40.203Z,11.02
2023-01-06T00:21:08.660Z,10.98
2023-01-06T00:23:36.467Z,10.93
2023-01-06T00:26:05.243Z,10.89
2023-01-06T00:28:34.606Z,10.84
2023-01-06T00:31:10.541Z,10.84
2023-01-06T00:33:39.609Z,10.84
2023-01-06T00:36:10.200Z,10.85
2023-01-06T00:38:38.044Z,10.79
2023-01-06T00:41:27.039Z,10.74
2023-01-06T00:43:56.562Z,10.66
2023-01-06T00:46:25.612Z,10.61
2023-01-06T00:49:04.312Z,10.65
2023-01-06T00:51:35.378Z,10.60
2023-01-06T00:54:02.801Z,10.56
2023-01-06T00:56:29.858Z,10.56
2023-01-06T00:58:56.869Z,10.53
2023-01-06T01:01:24.874Z,10.51
2023-01-06T01:03:51.877Z,10.45
2023-01-06T01:06:18.883Z,10.43
2023-01-06T01:08:46.046Z,10.38
2023-01-06T01:11:36.646Z,10.32
2023-01-06T01:14:03.857Z,10.32
2023-01-06T01:16:31.793Z,10.28
2023-01-06T01:18:59.544Z,10.20
2023-01-06T01:21:26.604Z,10.15
2023-01-06T01:23:53.661Z,10.08
2023-01-06T01:26:20.681Z,9.98
2023-01-06T01:28:47.879Z,9.93
2023-01-06T01:31:16.393Z,9.94
2023-01-06T01:33:43.608Z,9.91
2023-01-06T01:36:14.611Z,9.82
2023-01-06T01:38:41.960Z,9.80
2023-01-06T01:41:14.146Z,9.76
2023-01-06T01:43:47.060Z,9.72
2023-01-06T01:46:18.736Z,9.68
2023-01-06T01:48:46.263Z,9.66
2023-01-06T01:51:17.763Z,9.66
2023-01-06T01:53:49.846Z,9.65
2023-01-06T01:56:21.523Z,9.68
2023-01-06T01:58:55.819Z,9.65
2023-01-06T02:01:23.614Z,9.64
2023-01-06T02:03:51.920Z,9.58
2023-01-06T02:06:20.921Z,9.50
2023-01-06T02:08:58.263Z,9.48
2023-01-06T02:11:27.459Z,9.35
2023-01-06T02:14:10.631Z,9.33
2023-01-06T02:16:55.943Z,9.27
2023-01-06T02:19:41.740Z,9.16
2023-01-06T02:22:24.261Z,9.09
2023-01-06T02:24:59.726Z,9.04
2023-01-06T02:27:26.939Z,8.98
2023-01-06T02:30:24.922Z,8.92
2023-01-06T02:33:04.998Z,8.87
2023-01-06T02:35:44.407Z,8.83
2023-01-06T02:38:28.640Z,8.83
2023-01-06T02:41:27.898Z,8.83
2023-01-06T02:44:16.605Z,8.88
2023-01-06T02:46:55.791Z,8.91
2023-01-06T02:49:51.379Z,8.96
2023-01-06T02:52:37.690Z,9.03
2023-01-06T02:55:17.621Z,9.08
2023-01-06T02:57:57.901Z,9.14
2023-01-06T03:00:40.943Z,9.20
2023-01-06T03:03:13.539Z,9.25
2023-01-06T03:05:44.665Z,9.29
2023-01-06T03:08:24.328Z,9.32
2023-01-06T03:10:53.465Z,9.38
2023-01-06T03:13:42.080Z,9.41
2023-01-06T03:16:09.733Z,9.45
2023-01-06T03:18:38.405Z,9.47
2023-01-06T03:21:11.561Z,9.53
2023-01-06T03:23:40.680Z,9.55
2023-01-06T03:26:08.321Z,9.61
2023-01-06T03:28:35.781Z,9.65
2023-01-06T03:31:23.007Z,9.66
2023-01-06T03:34:28.541Z,9.70
2023-01-06T03:37:01.340Z,9.70
2023-01-06T03:39:36.201Z,9.68
2023-01-06T03:42:45.448Z,9.74
2023-01-06T03:45:32.945Z,9.79
2023-01-06T03:48:24.662Z,9.76
2023-01-06T03:51:06.001Z,9.73
2023-01-06T03:54:00.699Z,9.62
2023-01-06T03:56:33.662Z,9.67
2023-01-06T03:59:07.782Z,9.61
2023-01-06T04:01:35.443Z,9.60
2023-01-06T04:04:03.463Z,9.58
2023-01-06T04:06:31.282Z,9.58
2023-01-06T04:09:00.800Z,9.56
2023-01-06T04:11:46.487Z,9.56
2023-01-06T04:14:14.070Z,9.50
2023-01-06T04:16:41.309Z,9.50
2023-01-06T04:19:09.240Z,9.44
2023-01-06T04:21:37.215Z,9.41
2023-01-06T04:24:04.839Z,9.36
2023-01-06T04:26:34.182Z,9.33
2023-01-06T04:29:02.939Z,9.36
2023-01-06T04:31:30.834Z,9.34
2023-01-06T04:33:59.820Z,9.33
2023-01-06T04:36:26.881Z,9.35
2023-01-06T04:38:55.963Z,9.35
2023-01-06T04:41:23.039Z,9.36
2023-01-06T04:43:50.201Z,9.41
2023-01-06T04:46:17.154Z,9.38
2023-01-06T04:48:44.259Z,9.31
2023-01-06T04:51:11.903Z,9.35
2023-01-06T04:53:41.029Z,9.43
2023-01-06T04:56:10.701Z,9.44
2023-01-06T04:58:38.479Z,9.35
2023-01-06T05:01:09.122Z,9.30
2023-01-06T05:03:36.564Z,9.27
2023-01-06T05:06:11.900Z,9.25
2023-01-06T05:08:40.578Z,9.24
2023-01-06T05:11:10.745Z,9.23
2023-01-06T05:13:38.225Z,9.24
2023-01-06T05:16:10.766Z,9.20
2023-01-06T05:18:37.893Z,9.14
2023-01-06T05:21:05.262Z,9.10
2023-01-06T05:23:32.301Z,9.09
2023-01-06T05:25:59.283Z,9.04
2023-01-06T05:28:26.312Z,8.99
2023-01-06T05:30:54.153Z,8.91
2023-01-06T05:33:21.233Z,8.89
2023-01-06T05:35:48.137Z,8.85
2023-01-06T05:38:15.054Z,8.80
2023-01-06T05:40:42.073Z,8.79
2023-01-06T05:43:08.956Z,8.73
2023-01-06T05:45:37.237Z,8.70
2023-01-06T05:48:04.303Z,8.68
2023-01-06T05:50:31.195Z,8.67
2023-01-06T05:52:59.985Z,8.59
2023-01-06T05:55:27.093Z,8.57
2023-01-06T05:57:54.033Z,8.52
2023-01-06T06:00:21.000Z,8.48
2023-01-06T06:02:48.013Z,8.40
2023-01-06T06:05:15.011Z,8.36
2023-01-06T06:07:42.213Z,8.26
2023-01-06T06:10:09.731Z,8.15
2023-01-06T06:12:36.962Z,8.20
2023-01-06T06:15:04.179Z,8.17
2023-01-06T06:17:31.535Z,8.10
2023-01-06T06:19:58.475Z,8.08
2023-01-06T06:22:25.394Z,8.06
2023-01-06T06:24:52.395Z,8.06
2023-01-06T06:27:19.314Z,8.10
2023-01-06T06:29:46.274Z,8.13
2023-01-06T06:32:13.314Z,8.19
2023-01-06T06:34:40.353Z,8.25
2023-01-06T06:37:07.263Z,8.33
2023-01-06T06:39:34.313Z,8.43
2023-01-06T06:42:01.253Z,8.51
2023-01-06T06:44:28.154Z,8.58
2023-01-06T06:46:55.116Z,8.66
2023-01-06T06:49:22.135Z,8.74
2023-01-06T06:51:49.170Z,8.83
2023-01-06T06:54:16.274Z,8.90
2023-01-06T06:56:43.221Z,8.97
2023-01-06T06:59:10.122Z,9.03
2023-01-06T07:01:37.406Z,9.09
2023-01-06T07:04:04.725Z,9.13
2023-01-06T07:06:31.962Z,9.10
2023-01-06T07:08:58.979Z,9.18
2023-01-06T07:11:25.922Z,9.24
2023-01-06T07:13:52.895Z,9.28
2023-01-06T07:16:23.348Z,9.32
2023-01-06T07:18:50.302Z,9.38
2023-01-06T07:21:17.235Z,9.42
2023-01-06T07:23:44.381Z,9.47
2023-01-06T07:26:12.050Z,9.53
2023-01-06T07:28:38.951Z,9.58
2023-01-06T07:31:05.973Z,9.62
2023-01-06T07:33:32.934Z,9.66
2023-01-06T07:35:59.844Z,9.68
2023-01-06T07:38:26.848Z,9.73
2023-01-06T07:40:54.004Z,9.74
2023-01-06T07:43:21.027Z,9.74
2023-01-06T07:45:48.966Z,9.78
2023-01-06T07:48:17.468Z,9.83
2023-01-06T07:50:45.043Z,9.86
2023-01-06T07:53:12.551Z,9.89
2023-01-06T07:55:39.583Z,9.97
2023-01-06T07:58:10.121Z,10.02
2023-01-06T08:00:37.524Z,10.05
2023-01-06T08:03:06.293Z,10.07
2023-01-06T08:05:33.571Z,10.09
2023-01-06T08:08:00.579Z,10.14
2023-01-06T08:10:27.651Z,10.21
2023-01-06T08:12:54.704Z,10.28
2023-01-06T08:15:21.718Z,10.31
2023-01-06T08:17:53.305Z,10.42
2023-01-06T08:20:20.731Z,10.44
2023-01-06T08:22:47.866Z,10.51
2023-01-06T08:25:14.852Z,10.62
2023-01-06T08:27:41.785Z,10.70
2023-01-06T08:30:09.592Z,10.73
2023-01-06T08:32:36.551Z,10.77
2023-01-06T08:35:03.530Z,10.81
2023-01-06T08:37:30.553Z,10.90
2023-01-06T08:39:57.502Z,11.03
2023-01-06T08:42:24.741Z,11.12
2023-01-06T08:44:51.730Z,11.17
2023-01-06T08:47:18.719Z,11.11
2023-01-06T08:49:45.706Z,11.28
2023-01-06T08:52:12.720Z,11.37
2023-01-06T08:54:39.661Z,11.48
2023-01-06T08:57:08.524Z,11.55
2023-01-06T08:59:35.558Z,11.63
2023-01-06T09:02:02.600Z,11.62
2023-01-06T09:04:29.676Z,11.77
2023-01-06T09:06:57.614Z,11.80
2023-01-06T09:09:24.608Z,11.92
2023-01-06T09:11:51.705Z,11.93
2023-01-06T09:14:18.683Z,12.10
2023-01-06T09:16:47.927Z,12.25
2023-01-06T09:19:16.925Z,12.35
2023-01-06T09:21:46.303Z,12.44
2023-01-06T09:24:14.586Z,12.59
2023-01-06T09:26:41.797Z,12.72
2023-01-06T09:29:09.122Z,12.83
2023-01-06T09:31:36.208Z,12.95
2023-01-06T09:34:04.240Z,13.15
2023-01-06T09:36:32.888Z,13.27
2023-01-06T09:38:59.799Z,13.45
2023-01-06T09:41:48.515Z,13.64
2023-01-06T09:44:18.041Z,13.81
2023-01-06T09:46:49.103Z,14.00
2023-01-06T09:49:52.319Z,14.17
2023-01-06T09:52:33.599Z,14.31
2023-01-06T09:55:06.031Z,14.53
2023-01-06T09:57:37.941Z,14.75
2023-01-06T10:00:12.442Z,14.95
2023-01-06T10:02:40.879Z,14.95
2023-01-06T10:05:43.079Z,15.04
2023-01-06T10:08:23.276Z,15.20
2023-01-06T10:11:12.646Z,15.44
2023-01-06T10:14:06.781Z,15.58
2023-01-06T10:16:34.265Z,15.91
2023-01-06T10:19:03.962Z,15.98
2023-01-06T10:22:06.338Z,16.17
2023-01-06T10:25:04.266Z,16.29
2023-01-06T10:27:41.333Z,16.37
2023-01-06T10:30:20.369Z,16.52
2023-01-06T10:32:49.966Z,16.82
2023-01-06T10:35:20.172Z,16.81
2023-01-06T10:37:49.638Z,16.92
2023-01-06T10:40:21.205Z,17.02
2023-01-06T10:42:55.758Z,17.27
2023-01-06T10:45:26.511Z,17.42
2023-01-06T10:47:54.242Z,17.58
2023-01-06T10:50:21.933Z,17.81
2023-01-06T10:52:50.132Z,18.11
2023-01-06T10:55:29.289Z,18.32
2023-01-06T10:58:14.183Z,18.35
2023-01-06T11:00:59.210Z,18.57
2023-01-06T11:03:35.152Z,18.29
2023-01-06T11:06:07.001Z,18.37
2023-01-06T11:08:35.725Z,18.32
2023-01-06T11:11:09.528Z,18.25
2023-01-06T11:13:40.333Z,18.50
2023-01-06T11:16:18.606Z,18.46
2023-01-06T11:18:51.903Z,18.37
2023-01-06T11:21:18.880Z,18.46
2023-01-06T11:23:48.194Z,18.38
2023-01-06T11:26:28.302Z,18.48
2023-01-06T11:28:55.797Z,18.48
2023-01-06T11:31:28.440Z,18.56
2023-01-06T11:34:02.121Z,18.63
2023-01-06T11:36:33.013Z,18.74
2023-01-06T11:39:40.878Z,18.73
2023-01-06T11:42:13.259Z,18.78
2023-01-06T11:44:43.721Z,18.79
2023-01-06T11:47:16.434Z,18.85
2023-01-06T11:49:49.312Z,18.85
2023-01-06T11:52:21.654Z,19.13
2023-01-06T11:55:09.171Z,19.20
2023-01-06T11:57:44.622Z,19.39
2023-01-06T12:00:31.800Z,19.39
2023-01-06T12:13:24.084Z,19.71
2023-01-06T12:16:01.288Z,20.03
2023-01-06T12:18:33.271Z,20.40
2023-01-06T12:21:01.725Z,20.77
2023-01-06T12:23:37.906Z,21.31
2023-01-06T12:26:13.594Z,21.77
2023-01-06T12:28:43.693Z,22.40
2023-01-06T12:31:35.650Z,22.92
2023-01-06T12:34:27.541Z,23.29
2023-01-06T12:37:13.122Z,23.78
2023-01-06T12:40:09.251Z,24.56
2023-01-06T12:42:44.266Z,24.89
2023-01-06T12:45:41.106Z,25.84
2023-01-06T12:48:48.723Z,26.41
2023-01-06T12:51:18.831Z,26.51
2023-01-06T12:53:56.377Z,26.86
2023-01-06T12:56:38.456Z,26.64
2023-01-06T12:59:05.404Z,27.32
2023-01-06T13:01:50.427Z,27.39
2023-01-06T13:04:42.757Z,27.23
2023-01-06T13:07:12.583Z,27.64
2023-01-06T13:09:58.652Z,28.51
2023-01-06T13:12:58.174Z,28.80
2023-01-06T13:15:29.971Z,29.56
2023-01-06T13:18:18.825Z,29.91
2023-01-06T13:21:05.857Z,29.51
2023-01-06T13:23:51.423Z,29.15
2023-01-06T13:26:44.607Z,29.73
2023-01-06T13:29:20.423Z,29.77
2023-01-06T13:32:21.601Z,28.90
2023-01-06T13:35:13.650Z,28.28
2023-01-06T13:37:52.127Z,27.44
2023-01-06T13:40:21.931Z,26.52
2023-01-06T13:43:13.201Z,25.48
2023-01-06T13:45:47.749Z,25.11
2023-01-06T13:48:25.901Z,24.24
2023-01-06T13:50:53.233Z,23.52
2023-01-06T13:53:33.918Z,22.67
2023-01-06T13:56:13.456Z,21.74
2023-01-06T13:58:44.299Z,21.22
2023-01-06T14:01:20.635Z,20.67
2023-01-06T14:03:49.635Z,20.09
2023-01-06T14:06:22.946Z,19.93
2023-01-06T14:08:59.481Z,19.51
2023-01-06T14:11:35.567Z,19.16
2023-01-06T14:14:06.003Z,18.96
2023-01-06T14:16:50.875Z,18.48
2023-01-06T14:19:24.169Z,18.50
2023-01-06T14:21:54.921Z,18.22
2023-01-06T14:24:31.883Z,18.06
2023-01-06T14:27:08.410Z,17.81
2023-01-06T14:29:44.251Z,17.80
2023-01-06T14:32:14.241Z,17.67
2023-01-06T14:34:50.408Z,17.43
2023-01-06T14:37:19.575Z,17.29
2023-01-06T14:39:54.080Z,17.04
2023-01-06T14:42:39.075Z,16.86
2023-01-06T14:45:23.384Z,16.64
2023-01-06T14:47:54.000Z,16.43
2023-01-06T14:50:41.920Z,16.25
2023-01-06T14:53:39.814Z,16.10
2023-01-06T14:56:07.658Z,15.96
2023-01-06T14:58:37.171Z,15.86
2023-01-06T15:01:06.691Z,15.74
2023-01-06T15:03:34.797Z,15.66
2023-01-06T15:06:21.846Z,15.56
2023-01-06T15:08:49.463Z,15.38
2023-01-06T15:11:31.211Z,15.19
2023-01-06T15:13:58.323Z,14.99
2023-01-06T15:16:42.166Z,14.80
2023-01-06T15:19:16.324Z,14.70
2023-01-06T15:21:45.662Z,14.56
2023-01-06T15:24:28.123Z,14.39
2023-01-06T15:26:57.270Z,14.32
2023-01-06T15:29:25.806Z,14.18
2023-01-06T15:31:54.299Z,14.08
2023-01-06T15:34:25.736Z,13.96
2023-01-06T15:36:55.130Z,13.85
2023-01-06T15:39:33.123Z,13.69
2023-01-06T15:42:02.530Z,13.55
2023-01-06T15:44:35.622Z,13.48
2023-01-06T15:47:11.631Z,13.36
2023-01-06T15:49:49.022Z,13.23
2023-01-06T15:52:45.368Z,13.11
2023-01-06T15:55:32.852Z,12.98
2023-01-06T15:58:21.784Z,12.85
2023-01-06T16:01:12.845Z,12.74
2023-01-06T16:03:40.406Z,12.69
2023-01-06T16:06:15.850Z,12.59
2023-01-06T16:08:43.965Z,12.51
2023-01-06T16:11:16.641Z,12.41
2023-01-06T16:13:58.233Z,12.31
2023-01-06T16:16:31.736Z,12.23
2023-01-06T16:18:58.761Z,12.16
2023-01-06T16:21:32.237Z,12.11
2023-01-06T16:24:05.013Z,12.05
2023-01-06T16:26:41.297Z,11.99
2023-01-06T16:29:36.025Z,11.95
2023-01-06T16:32:29.206Z,11.89
2023-01-06T16:35:03.095Z,11.87
2023-01-06T16:37:34.325Z,11.82
2023-01-06T16:40:01.329Z,11.80
2023-01-06T16:42:39.846Z,11.73
2023-01-06T16:45:07.220Z,11.71
2023-01-06T16:47:34.195Z,11.66
2023-01-06T16:50:22.615Z,11.64
2023-01-06T16:53:09.772Z,11.57
2023-01-06T16:55:38.271Z,11.50
2023-01-06T16:58:19.032Z,11.48
2023-01-06T17:00:54.653Z,11.44
2023-01-06T17:03:24.204Z,11.37
2023-01-06T17:05:54.320Z,11.32
2023-01-06T17:08:37.071Z,11.26
2023-01-06T17:11:25.645Z,11.19
2023-01-06T17:14:04.940Z,11.15
2023-01-06T17:16:35.182Z,11.08
2023-01-06T17:19:28.764Z,11.05
2023-01-06T17:22:13.224Z,11.00
2023-01-06T17:24:40.254Z,10.97
2023-01-06T17:27:28.317Z,10.96
2023-01-06T17:29:56.007Z,10.96
2023-01-06T17:32:35.062Z,10.96
2023-01-06T17:35:03.008Z,10.92
2023-01-06T17:37:30.336Z,10.88
2023-01-06T17:39:58.297Z,10.90
2023-01-06T17:42:32.631Z,10.86
2023-01-06T17:45:01.151Z,10.85
2023-01-06T17:47:45.929Z,10.82
2023-01-06T17:50:31.517Z,10.79
2023-01-06T17:53:48.263Z,10.76
2023-01-06T17:56:15.546Z,10.70
2023-01-06T17:58:44.367Z,10.67
2023-01-06T18:01:22.693Z,10.66
2023-01-06T18:03:51.128Z,10.64
2023-01-06T18:06:20.095Z,10.61
2023-01-06T18:08:49.176Z,10.60
2023-01-06T18:11:24.016Z,10.53
2023-01-06T18:13:51.956Z,10.44
2023-01-06T18:16:33.520Z,10.38
2023-01-06T18:19:23.727Z,10.31
2023-01-06T18:21:51.004Z,10.26
2023-01-06T18:24:22.980Z,10.25
2023-01-06T18:26:55.256Z,10.19
2023-01-06T18:29:31.346Z,10.12
2023-01-06T18:32:19.134Z,10.10
2023-01-06T18:34:47.235Z,10.05
2023-01-06T18:37:14.494Z,9.98
2023-01-06T18:39:47.564Z,9.87
2023-01-06T18:42:19.793Z,9.77
2023-01-06T18:44:47.655Z,9.63
2023-01-06T18:47:23.590Z,9.55
2023-01-06T18:49:56.183Z,9.45
2023-01-06T18:52:44.553Z,9.38
2023-01-06T18:55:19.475Z,9.31
2023-01-06T18:57:54.966Z,9.30
2023-01-06T19:00:37.251Z,9.23
2023-01-06T19:03:19.493Z,9.16
2023-01-06T19:05:47.685Z,9.09
2023-01-06T19:08:35.055Z,9.03
2023-01-06T19:11:03.784Z,8.99
2023-01-06T19:13:30.869Z,8.96
2023-01-06T19:16:07.301Z,8.93
2023-01-06T19:18:34.463Z,8.96
2023-01-06T19:21:03.832Z,8.99
2023-01-06T19:23:32.659Z,9.03
2023-01-06T19:26:31.774Z,9.04
2023-01-06T19:29:02.239Z,9.03
2023-01-06T19:31:30.875Z,9.03
2023-01-06T19:34:00.946Z,8.85
2023-01-06T19:36:39.805Z,8.70
2023-01-06T19:39:36.740Z,8.78
2023-01-06T19:42:22.976Z,8.78
2023-01-06T19:44:54.510Z,8.71
2023-01-06T19:47:29.367Z,8.67
2023-01-06T19:50:00.240Z,8.56
2023-01-06T19:52:35.785Z,8.49
2023-01-06T19:55:18.533Z,8.42
2023-01-06T19:57:55.351Z,8.31
2023-01-06T20:00:27.126Z,8.30
2023-01-06T20:02:59.451Z,8.28
2023-01-06T20:05:27.836Z,8.27
2023-01-06T20:07:54.865Z,8.28
2023-01-06T20:10:22.010Z,8.29
2023-01-06T20:12:49.518Z,8.29
2023-01-06T20:15:16.737Z,8.29
2023-01-06T20:17:43.829Z,8.30
2023-01-06T20:20:11.666Z,8.33
2023-01-06T20:22:38.697Z,8.37
2023-01-06T20:25:06.134Z,8.39
2023-01-06T20:27:33.800Z,8.36
2023-01-06T20:30:00.772Z,8.37
2023-01-06T20:32:27.806Z,8.39
2023-01-06T20:34:54.808Z,8.38
2023-01-06T20:37:21.763Z,8.40
2023-01-06T20:39:48.983Z,8.36
2023-01-06T20:42:15.917Z,8.18
2023-01-06T20:44:42.966Z,8.28
2023-01-06T20:47:10.081Z,8.30
2023-01-06T20:49:39.017Z,8.32
2023-01-06T20:52:06.236Z,8.24
2023-01-06T20:54:33.307Z,8.19
2023-01-06T20:57:00.194Z,8.17
2023-01-06T20:59:27.374Z,8.14
2023-01-06T21:01:54.746Z,8.14
2023-01-06T21:04:21.794Z,8.13
2023-01-06T21:06:48.814Z,8.15
2023-01-06T21:09:15.896Z,8.14
2023-01-06T21:11:42.802Z,8.15
2023-01-06T21:14:09.743Z,8.15
2023-01-06T21:16:37.027Z,8.14
2023-01-06T21:19:03.969Z,8.17
2023-01-06T21:21:30.968Z,8.17
2023-01-06T21:24:00.545Z,8.03
2023-01-06T21:26:27.534Z,7.97
2023-01-06T21:28:54.604Z,7.87
2023-01-06T21:31:22.045Z,7.75
2023-01-06T21:33:49.391Z,7.69
2023-01-06T21:36:16.387Z,7.63
2023-01-06T21:38:43.495Z,7.60
2023-01-06T21:41:29.241Z,7.64
2023-01-06T21:43:56.258Z,7.65
2023-01-06T21:46:23.260Z,7.65
2023-01-06T21:48:50.221Z,7.62
2023-01-06T21:51:17.434Z,7.61
2023-01-06T21:53:45.015Z,7.60
2023-01-06T21:56:12.033Z,7.58
2023-01-06T21:58:39.091Z,7.61
2023-01-06T22:01:06.717Z,7.64
2023-01-06T22:03:33.835Z,7.64
2023-01-06T22:06:02.777Z,7.52
2023-01-06T22:08:31.274Z,7.55
2023-01-06T22:10:58.892Z,7.50
2023-01-06T22:13:26.324Z,7.43
2023-01-06T22:15:53.464Z,7.41
2023-01-06T22:18:20.580Z,7.48
2023-01-06T22:20:47.695Z,7.50
2023-01-06T22:23:19.277Z,7.51
2023-01-06T22:25:46.354Z,7.43
2023-01-06T22:28:13.296Z,7.46
2023-01-06T22:30:40.277Z,7.33
2023-01-06T22:33:07.342Z,7.35
2023-01-06T22:35:34.334Z,7.31
2023-01-06T22:38:01.602Z,7.35
2023-01-06T22:40:28.862Z,7.33
2023-01-06T22:42:57.107Z,7.35
2023-01-06T22:45:23.993Z,7.33
2023-01-06T22:47:50.939Z,7.31
2023-01-06T22:50:17.963Z,7.27
2023-01-06T22:52:44.963Z,7.23
2023-01-06T22:55:12.012Z,7.23
2023-01-06T22:57:39.412Z,7.25
2023-01-06T23:00:12.264Z,7.23
2023-01-06T23:02:39.351Z,7.19
2023-01-06T23:05:06.909Z,7.17
2023-01-06T23:07:42.226Z,7.17
2023-01-06T23:10:10.635Z,7.15
2023-01-06T23:12:39.080Z,7.13
2023-01-06T23:15:06.502Z,7.16
2023-01-06T23:17:33.511Z,7.13
2023-01-06T23:20:00.584Z,7.11
2023-01-06T23:22:27.525Z,7.10
2023-01-06T23:24:54.494Z,7.09
2023-01-06T23:27:21.472Z,7.10
2023-01-06T23:29:48.427Z,7.12
2023-01-06T23:32:15.495Z,7.12
2023-01-06T23:34:42.451Z,7.08
2023-01-06T23:37:09.411Z,7.06
2023-01-06T23:39:36.414Z,7.03
2023-01-06T23:42:04.511Z,6.97
2023-01-06T23:44:31.453Z,7.00
2023-01-06T23:46:58.510Z,7.03
2023-01-06T23:49:25.474Z,7.05
2023-01-06T23:51:52.374Z,7.06
2023-01-06T23:54:19.363Z,7.00
2023-01-06T23:56:46.775Z,6.98
2023-01-06T23:59:14.375Z,6.96
